Latest Weather Observations for Cape Grim

IDT60801

Issued at 12:11 am EDT Wednesday 27 January 2021 (issued every 10 minutes, with the page automatically refreshed every 10 minutes)

About weather observations | Map of weather stations | Latest weather observations for TAS | Other Formats
Station Details ID: 091331 Name: CAPE GRIM Lat: -40.68 Lon: 144.69 Height: 86.0 m
Data from the previous 72 hours. | See also: Recent months at Cape Grim
Date/Time
EDT
Temp
°C
App
Temp
°C
Dew
Point
°C
Rel
Hum
%
Delta-T
°C
Wind Press
QNH
hPa
Press
MSL
hPa
Rain since
9am
mm
Dir  Spd
km/h
Gust
km/h
Spd
kts
Gust
kts
27/12:00am 13.2 4.9 6.1 62 3.4 SSW 39 54 21 29 1012.9 1012.8 0.0
 
Date/Time
EDT
Temp
°C
App
Temp
°C
Dew
Point
°C
Rel
Hum
%
Delta-T
°C
Wind Press
QNH
hPa
Press
MSL
hPa
Rain since
9am
mm
Dir  Spd
km/h
Gust
km/h
Spd
kts
Gust
kts
26/11:43pm 13.1 5.6 6.5 64 3.2 SSW 35 54 19 29 1012.6 1012.5 0.0
26/11:30pm 13.1 4.8 6.2 63 3.3 SSW 39 52 21 28 1012.6 1012.5 0.0
26/11:17pm 13.0 4.8 6.6 65 3.1 SSW 39 57 21 31 1012.5 1012.4 0.0
26/11:00pm 12.9 5.5 6.9 67 2.9 S 35 50 19 27 1012.3 1012.2 0.0
26/10:30pm 12.9 4.6 6.3 64 3.2 S 39 57 21 31 1012.1 1012.0 0.0
26/10:23pm 13.0 5.1 6.4 64 3.2 SSW 37 57 20 31 1012.0 1011.9 0.0
26/10:00pm 13.0 6.6 6.8 66 3.0 S 30 39 16 21 1011.7 1011.6 0.0
26/09:30pm 12.8 5.1 5.2 60 3.5 S 35 48 19 26 1011.1 1011.0 0.0
26/09:04pm 12.9 4.1 5.6 61 3.4 SSW 41 59 22 32 1010.5 1010.4 0.0
26/09:00pm 13.0 4.3 6.1 63 3.3 SSW 41 56 22 30 1010.4 1010.3 0.0
26/08:30pm 12.9 3.7 5.3 60 3.6 SSW 43 57 23 31 1010.2 1010.1 0.0
26/08:12pm 13.2 5.1 7.2 67 2.9 SSW 39 59 21 32 1009.8 1009.6 0.0
26/08:00pm 12.9 3.8 6.0 63 3.3 SSW 43 57 23 31 1009.5 1009.3 0.0
26/07:40pm 13.4 4.7 5.8 60 3.6 SSW 41 59 22 32 1009.1 1008.9 0.0
26/07:30pm 13.3 4.0 5.0 57 3.9 SSW 43 57 23 31 1008.9 1008.7 0.0
26/07:00pm 13.4 3.7 5.6 59 3.7 SSW 46 65 25 35 1008.3 1008.1 0.0
26/06:30pm 14.0 5.1 6.8 62 3.5 SSW 43 63 23 34 1007.8 1007.6 0.0
26/06:00pm 14.0 4.9 5.9 58 3.9 SW 43 61 23 33 1007.5 1007.3 0.0
26/05:30pm 14.2 4.8 7.3 63 3.4 SSW 46 65 25 35 1007.1 1006.9 0.0
26/05:00pm 14.9 6.1 8.2 64 3.4 SW 44 65 24 35 1006.8 1006.6 0.0
26/04:30pm 14.9 5.8 6.7 58 4.0 SW 44 63 24 34 1006.6 1006.4 0.0
26/04:00pm 14.6 4.0 6.9 60 3.8 SW 52 70 28 38 1006.3 1006.1 0.0
26/03:30pm 15.4 6.1 9.1 66 3.2 SW 48 69 26 37 1005.6 1005.5 0.0
26/03:00pm 15.3 6.4 9.2 67 3.2 SSW 46 65 25 35 1005.2 1005.1 0.0
26/02:30pm 15.6 6.1 9.7 68 3.1 SW 50 69 27 37 1004.9 1004.8 0.0
26/02:00pm 16.0 8.2 11.0 72 2.7 SW 43 63 23 34 1004.5 1004.4 0.0
26/01:42pm 15.6 7.2 11.2 75 2.4 SW 46 65 25 35 1004.4 1004.3 0.0
26/01:30pm 15.3 6.5 11.1 76 2.2 SW 48 65 26 35 1004.3 1004.2 0.0
26/01:00pm 15.6 7.7 11.6 77 2.2 SW 44 63 24 34 1004.1 1004.0 0.0
26/12:46pm 15.2 7.4 11.8 80 1.8 SW 44 63 24 34 1004.0 1003.9 0.0
26/12:43pm 15.3 7.1 11.7 79 2.0 SW 46 63 25 34 1004.0 1003.9 0.0
26/12:30pm 15.6 8.0 12.4 81 1.8 SW 44 65 24 35 1003.7 1003.6 0.0
26/12:28pm 15.8 8.2 12.5 81 1.8 SW 44 65 24 35 1003.7 1003.6 0.0
26/12:13pm 15.2 7.2 12.5 84 1.5 SW 46 65 25 35 1003.5 1003.4 0.0
26/12:00pm 14.8 6.5 12.7 87 1.2 SW 48 65 26 35 1003.2 1003.1 0.0
26/11:47am 15.7 7.8 12.6 82 1.7 SW 46 67 25 36 1003.0 1002.9 0.0
26/11:30am 16.3 8.3 12.3 77 2.2 SW 46 57 25 31 1002.9 1002.8 0.0
26/11:00am 16.4 9.3 13.5 83 1.6 SW 43 54 23 29 1002.6 1002.5 0.0
26/10:30am 16.0 10.9 13.7 86 1.3 SW 33 46 18 25 1002.1 1002.0 0.0
26/10:00am 16.1 9.8 13.4 84 1.5 SW 39 50 21 27 1001.6 1001.5 0.0
26/09:30am 16.0 10.7 14.2 89 1.0 SW 35 46 19 25 1001.4 1001.3 0.0
26/09:00am 15.7 10.4 14.1 90 0.9 SW 35 44 19 24 1001.2 1001.1 16.8
26/08:30am 15.7 10.9 14.1 90 0.9 SW 32 37 17 20 1000.8 1000.7 16.8
26/08:00am 15.2 9.5 14.2 94 0.6 SW 37 48 20 26 1000.4 1000.3 16.8
26/07:30am 14.9 8.8 14.1 95 0.5 SW 39 46 21 25 1000.0 999.8 16.8
26/07:26am 14.8 8.7 14.0 95 0.5 SW 39 46 21 25 999.9 999.7 16.8
26/07:00am 14.7 9.1 14.4 98 0.2 SW 37 44 20 24 999.4 999.2 16.8
26/06:30am 14.3 9.3 14.0 98 0.2 SW 33 44 18 24 999.1 998.9 16.8
26/06:25am 14.3 9.3 14.0 98 0.2 SW 33 43 18 23 999.1 998.9 16.8
26/06:03am 14.3 9.3 14.0 98 0.2 SW 33 43 18 23 999.1 998.9 16.8
26/06:00am 14.3 9.3 14.0 98 0.2 SW 33 41 18 22 999.0 998.8 16.8
26/05:30am 14.3 9.5 14.0 98 0.2 SW 32 43 17 23 998.8 998.6 16.6
26/05:00am 14.0 8.9 13.7 98 0.2 SW 33 41 18 22 998.7 998.5 16.6
26/04:30am 14.5 10.1 14.2 98 0.2 SW 30 37 16 20 998.8 998.6 16.4
26/04:00am 14.6 9.9 14.3 98 0.2 SW 32 39 17 21 998.8 998.6 15.8
26/03:30am 15.0 10.8 14.7 98 0.2 SW 30 35 16 19 998.8 998.6 15.2
26/03:00am 15.1 10.4 14.8 98 0.2 SW 33 50 18 27 998.9 998.7 14.4
26/02:56am 15.2 11.1 14.9 98 0.2 SW 30 50 16 27 998.9 998.7 14.2
26/02:30am 15.9 13.9 15.6 98 0.2 W 20 28 11 15 998.5 998.3 13.6
26/02:00am 15.9 14.1 15.6 98 0.2 W 19 32 10 17 998.5 998.3 12.8
26/01:30am 15.9 14.5 15.6 98 0.2 WSW 17 28 9 15 998.5 998.3 12.2
26/01:00am 15.9 14.9 15.6 98 0.2 WSW 15 28 8 15 998.4 998.2 11.4
26/12:30am 15.9 15.3 15.6 98 0.2 WSW 13 24 7 13 998.3 998.1 10.2
26/12:00am 15.9 14.9 15.6 98 0.2 W 15 26 8 14 999.3 999.1 8.4
 
Date/Time
EDT
Temp
°C
App
Temp
°C
Dew
Point
°C
Rel
Hum
%
Delta-T
°C
Wind Press
QNH
hPa
Press
MSL
hPa
Rain since
9am
mm
Dir  Spd
km/h
Gust
km/h
Spd
kts
Gust
kts
25/11:30pm 15.9 14.1 15.6 98 0.2 WSW 19 28 10 15 998.9 998.7 8.2
25/11:00pm 15.9 14.1 15.6 98 0.2 WSW 19 28 10 15 999.5 999.3 7.8
25/10:30pm 16.1 14.4 15.8 98 0.2 W 19 32 10 17 999.7 999.5 7.6
25/10:00pm 16.3 14.7 16.0 98 0.2 W 19 30 10 16 999.6 999.4 6.2
25/09:48pm 16.5 16.5 16.2 98 0.2 WNW 11 15 6 8 999.4 999.2 5.4
25/09:36pm 16.4 16.3 16.1 98 0.2 NW 11 15 6 8 999.2 999.0 5.0
25/09:30pm 16.4 16.3 16.1 98 0.2 NNW 11 15 6 8 999.2 999.0 4.8
25/09:19pm 16.4 16.7 16.1 98 0.2 NW 9 13 5 7 999.2 999.0 4.4
25/09:00pm 16.4 17.1 16.1 98 0.2 NW 7 11 4 6 999.0 998.8 3.6
25/08:30pm 16.6 15.9 16.3 98 0.2 NNW 15 19 8 10 998.8 998.6 2.4
25/08:00pm 16.8 16.5 16.5 98 0.2 WNW 13 15 7 8 998.8 998.6 0.6
25/07:30pm 17.1 18.0 16.6 97 0.3 WSW 7 11 4 6 998.4 998.2 0.4
25/07:00pm 17.1 17.6 16.6 97 0.3 S 9 11 5 6 997.9 997.7 0.2
25/06:30pm 17.1 18.2 16.6 97 0.3 SW 6 9 3 5 998.4 998.2 0.2
25/06:00pm 17.1 17.6 16.6 97 0.3 WSW 9 13 5 7 999.0 998.8 0.0
25/05:30pm 17.2 16.2 16.6 96 0.4 SW 17 22 9 12 999.0 998.8 0.0
25/05:00pm 17.3 15.6 16.3 94 0.6 SW 20 30 11 16 999.3 999.1 0.0
25/04:30pm 17.7 16.5 16.2 91 0.9 SW 17 22 9 12 999.3 999.1 0.0
25/04:00pm 18.4 16.9 16.2 87 1.3 SW 19 24 10 13 999.1 998.9 0.0
25/03:30pm 19.0 17.5 16.2 84 1.7 SW 19 24 10 13 999.0 998.8 0.0
25/03:00pm 19.5 18.5 16.5 83 1.8 SW 17 28 9 15 999.0 998.8 0.0
25/02:30pm 19.9 18.0 16.7 82 1.9 SW 22 30 12 16 998.8 998.6 0.0
25/02:00pm 19.7 17.0 16.5 82 1.9 SW 26 33 14 18 999.0 998.8 0.0
25/01:30pm 21.5 20.0 17.7 79 2.4 SW 22 30 12 16 999.6 999.4 0.0
25/01:00pm 20.1 19.0 16.3 79 2.3 SW 17 20 9 11 999.7 999.5 0.0
25/12:30pm 20.1 19.5 16.7 81 2.1 SW 15 17 8 9 999.8 999.6 0.0
25/12:00pm 19.3 16.0 16.0 81 2.0 SW 28 39 15 21 998.8 998.6 0.0
25/11:43am 19.0 17.1 15.7 81 2.0 SW 20 30 11 16 998.8 998.6 0.0
25/11:30am 19.3 17.1 16.0 81 2.0 W 22 28 12 15 1000.9 1000.8 0.0
25/11:00am 19.6 19.2 16.3 81 2.0 NNW 13 17 7 9 1000.1 999.9 0.0
25/10:30am 21.5 23.5 16.9 75 2.8 NNE 2 11 1 6 999.5 999.3 0.0
25/10:00am 21.3 21.9 16.7 75 2.8 NNW 9 15 5 8 999.9 999.7 0.0
25/09:30am 20.3 18.8 16.7 80 2.2 ENE 20 22 11 12 999.1 998.9 0.0
25/09:00am 20.2 19.4 17.0 82 2.0 ENE 17 22 9 12 999.3 999.1 0.0
25/08:30am 19.4 17.0 16.4 83 1.8 ENE 24 28 13 15 999.2 999.0 0.0
25/08:00am 18.8 16.7 16.2 85 1.6 ENE 22 30 12 16 998.9 998.7 0.0
25/07:30am 18.8 15.3 16.6 87 1.3 ENE 30 35 16 19 998.7 998.5 0.0
25/07:00am 18.6 15.1 16.4 87 1.3 ENE 30 35 16 19 998.8 998.6 0.0
25/06:30am 18.6 13.3 16.2 86 1.4 ENE 39 43 21 23 998.1 997.9 0.0
25/06:00am 18.2 14.0 16.2 88 1.2 ENE 33 41 18 22 998.5 998.3 0.0
25/05:30am 18.0 12.2 16.0 88 1.2 ENE 41 48 22 26 998.4 998.2 0.0
25/05:00am 17.8 13.6 16.1 90 1.0 ENE 33 37 18 20 998.9 998.7 0.0
25/04:30am 18.0 13.9 16.5 91 0.9 ENE 33 39 18 21 999.2 999.0 0.0
25/04:00am 18.1 14.1 16.6 91 0.9 E 33 41 18 22 999.5 999.3 0.0
25/03:30am 18.1 12.2 16.6 91 0.9 ENE 43 50 23 27 999.4 999.2 0.0
25/03:00am 17.9 11.9 16.4 91 0.9 E 43 52 23 28 999.7 999.5 0.0
25/02:30am 18.0 11.4 16.3 90 1.0 ENE 46 56 25 30 1000.0 999.8 0.0
25/02:00am 17.9 10.9 16.2 90 1.0 E 48 56 26 30 1000.3 1000.2 0.0
25/01:30am 17.9 11.2 16.1 89 1.1 E 46 57 25 31 1000.7 1000.6 0.0
25/01:00am 17.9 11.2 16.1 89 1.1 E 46 56 25 30 1001.2 1001.1 0.0
25/12:30am 18.0 11.3 16.2 89 1.1 E 46 56 25 30 1001.7 1001.6 0.0
25/12:00am 17.9 10.4 15.9 88 1.2 E 50 59 27 32 1002.1 1002.0 0.0
 
Date/Time
EDT
Temp
°C
App
Temp
°C
Dew
Point
°C
Rel
Hum
%
Delta-T
°C
Wind Press
QNH
hPa
Press
MSL
hPa
Rain since
9am
mm
Dir  Spd
km/h
Gust
km/h
Spd
kts
Gust
kts
24/11:30pm 17.9 11.1 15.9 88 1.2 E 46 56 25 30 1002.5 1002.4 0.0
24/11:00pm 17.9 11.1 15.9 88 1.2 E 46 54 25 29 1003.2 1003.1 0.0
24/10:30pm 17.7 11.3 16.0 90 1.0 E 44 52 24 28 1003.7 1003.6 0.0
24/10:00pm 17.6 12.1 15.8 89 1.1 E 39 48 21 26 1004.3 1004.2 0.0
24/09:30pm 17.5 11.1 15.5 88 1.2 E 43 50 23 27 1003.8 1003.7 0.0
24/09:00pm 17.7 11.6 15.3 86 1.4 E 41 48 22 26 1004.1 1004.0 0.0
24/08:30pm 17.9 12.8 15.7 87 1.3 E 37 44 20 24 1004.3 1004.2 0.0
24/08:00pm 18.1 13.2 16.3 89 1.1 E 37 44 20 24 1004.5 1004.4 0.0
24/07:30pm 18.4 13.8 16.0 86 1.4 ENE 35 43 19 23 1004.7 1004.6 0.0
24/07:00pm 19.1 14.8 15.8 81 2.0 ENE 33 41 18 22 1005.1 1005.0 0.0
24/06:30pm 20.0 16.7 16.0 78 2.4 ENE 28 33 15 18 1005.5 1005.4 0.0
24/06:00pm 21.0 18.7 15.8 72 3.1 ENE 22 28 12 15 1006.3 1006.1 0.0
24/05:30pm 22.0 19.6 16.5 71 3.4 ENE 24 26 13 14 1006.5 1006.3 0.0
24/05:00pm 21.2 18.8 16.4 74 2.9 NE 24 28 13 15 1006.7 1006.5 0.0
24/04:30pm 20.1 17.4 15.7 76 2.6 NE 24 26 13 14 1006.8 1006.6 0.0
24/04:00pm 20.1 16.7 15.7 76 2.6 NE 28 33 15 18 1006.9 1006.7 0.0
24/03:30pm 20.6 16.5 14.9 70 3.4 ENE 30 35 16 19 1006.6 1006.4 0.0
24/03:00pm 20.5 16.3 13.5 64 4.0 NE 28 32 15 17 1007.3 1007.1 0.0
24/02:30pm 22.3 19.6 15.6 66 4.0 NE 24 28 13 15 1007.9 1007.7 0.0
24/02:00pm 21.4 18.0 13.6 61 4.5 NNE 24 28 13 15 1008.5 1008.3 0.0
24/01:30pm 20.1 16.8 14.9 72 3.1 NE 26 32 14 17 1008.6 1008.4 0.0
24/01:00pm 20.3 17.1 14.2 68 3.6 NE 24 30 13 16 1008.6 1008.4 0.0
24/12:30pm 20.6 18.5 13.6 64 4.0 NE 17 20 9 11 1009.5 1009.3 0.0
24/12:00pm 20.9 19.7 14.1 65 4.0 NE 13 19 7 10 1010.0 1009.9 0.0
24/11:30am 19.7 18.0 13.6 68 3.5 NE 15 19 8 10 1010.0 1009.9 0.0
24/11:00am 18.5 17.6 13.8 74 2.7 N 11 17 6 9 1010.4 1010.3 0.0
24/10:30am 17.5 16.5 13.4 77 2.3 W 11 13 6 7 1010.7 1010.6 0.0
24/10:00am 16.9 16.1 13.0 78 2.2 SW 9 13 5 7 1010.9 1010.8 0.0
24/09:30am 16.7 16.0 13.2 80 2.0 SW 9 13 5 7 1011.1 1011.0 0.0
24/09:00am 16.7 16.1 13.4 81 1.9 SW 9 11 5 6 1011.2 1011.1 0.0
24/08:30am 16.3 15.7 13.4 83 1.6 SW 9 13 5 7 1011.1 1011.0 0.0
24/08:00am 15.7 15.0 13.2 85 1.4 SSW 9 13 5 7 1011.0 1010.9 0.0
24/07:50am 15.5 14.8 13.2 86 1.3 SW 9 13 5 7 1010.9 1010.8 0.0
24/07:30am 14.8 13.9 12.7 87 1.2 WSW 9 15 5 8 1011.2 1011.1 0.0
24/07:07am 14.6 13.3 12.6 88 1.1 WSW 11 17 6 9 1011.2 1011.1 0.0
24/07:00am 14.5 12.8 12.5 88 1.1 WSW 13 20 7 11 1010.9 1010.8 0.0
24/06:59am 14.4 12.7 12.4 88 1.1 WSW 13 20 7 11 1010.9 1010.8 0.0
24/06:45am 14.2 12.9 12.4 89 1.0 SW 11 17 6 9 1010.7 1010.6 0.0
24/06:30am 13.8 12.3 12.0 89 1.0 SSW 11 17 6 9 1010.4 1010.3 0.0
24/06:15am 13.9 12.4 11.9 88 1.1 SW 11 15 6 8 1010.1 1010.0 0.0
24/06:00am 13.9 11.2 11.8 87 1.1 SW 17 24 9 13 1010.0 1009.9 0.0
24/05:30am 14.3 11.8 12.3 88 1.1 SW 17 24 9 13 1010.5 1010.4 0.0
24/05:00am 14.5 13.6 12.7 89 1.0 W 9 17 5 9 1010.1 1010.0 0.0
24/04:30am 14.3 12.6 12.5 89 1.0 W 13 19 7 10 1010.4 1010.3 0.0
24/04:00am 14.4 14.5 12.8 90 0.9 WSW 4 11 2 6 1009.6 1009.4 0.0
24/03:30am 14.6 13.5 13.0 90 0.9 WSW 11 17 6 9 1010.2 1010.1 0.0
24/03:00am 14.7 13.6 13.2 91 0.8 WSW 11 22 6 12 1010.8 1010.7 0.0
24/02:30am 15.0 13.3 13.5 91 0.8 SW 15 24 8 13 1011.0 1010.9 0.0
24/02:00am 15.0 13.2 13.4 90 0.9 SW 15 20 8 11 1010.8 1010.7 0.0
24/01:30am 15.0 13.6 13.4 90 0.9 SW 13 19 7 10 1010.7 1010.6 0.0
24/01:00am 14.9 13.8 13.1 89 1.0 SSW 11 15 6 8 1010.4 1010.3 0.0
24/12:30am 15.0 13.5 13.2 89 1.0 SW 13 17 7 9 1010.8 1010.7 0.0

Other formats

Comma delimited format used in spreadsheet applications
http://www.bom.gov.au/fwo/IDT60801/IDT60801.95954.axf

JavaScript Object Notation format (JSON) in row-major order
http://www.bom.gov.au/fwo/IDT60801/IDT60801.95954.json

Data quality

Most of these data are generated automatically and are frequently updated. Quality checks on data are not normally performed. It is possible for incorrect values to appear. Refer to information at About Latest Weather Observations and please check the disclaimer before using these data.